sensor_id;sensor_type;location;lat;lon;timestamp;temperature;humidity
27870;DHT22;15225;50.730;4.244;2023-09-19T17:56:20;18.90;99.90
27870;DHT22;15225;50.730;4.244;2023-09-19T17:58:46;18.70;1.00
27870;DHT22;15225;50.730;4.244;2023-09-19T18:01:20;19.10;1.00
27870;DHT22;15225;50.730;4.244;2023-09-19T18:03:46;19.50;99.90
27870;DHT22;15225;50.730;4.244;2023-09-19T18:06:13;19.70;1.00
27870;DHT22;15225;50.730;4.244;2023-09-19T18:08:40;19.90;99.90
27870;DHT22;15225;50.730;4.244;2023-09-19T18:11:14;20.10;10.70
27870;DHT22;15225;50.730;4.244;2023-09-19T18:13:47;20.20;99.90
27870;DHT22;15225;50.730;4.244;2023-09-19T18:16:18;20.30;99.90
27870;DHT22;15225;50.730;4.244;2023-09-19T18:18:45;20.40;1.00
27870;DHT22;15225;50.730;4.244;2023-09-19T18:21:16;20.50;1.00
27870;DHT22;15225;50.730;4.244;2023-09-19T18:23:41;20.50;99.90
27870;DHT22;15225;50.730;4.244;2023-09-19T18:26:07;20.50;99.90
27870;DHT22;15225;50.730;4.244;2023-09-19T18:28:36;20.40;99.90
27870;DHT22;15225;50.730;4.244;2023-09-19T18:31:06;20.30;99.90
27870;DHT22;15225;50.730;4.244;2023-09-19T18:33:32;20.40;99.90
27870;DHT22;15225;50.730;4.244;2023-09-19T18:36:07;20.30;1.00
27870;DHT22;15225;50.730;4.244;2023-09-19T18:38:41;20.40;99.90
27870;DHT22;15225;50.730;4.244;2023-09-19T18:41:08;20.40;99.90
27870;DHT22;15225;50.730;4.244;2023-09-19T18:43:34;20.30;99.90
27870;DHT22;15225;50.730;4.244;2023-09-19T18:46:08;20.10;1.00
27870;DHT22;15225;50.730;4.244;2023-09-19T18:48:36;20.00;1.00
27870;DHT22;15225;50.730;4.244;2023-09-19T18:51:06;20.00;29.50
27870;DHT22;15225;50.730;4.244;2023-09-19T18:53:33;20.20;1.00
27870;DHT22;15225;50.730;4.244;2023-09-19T18:56:18;20.30;99.90
27870;DHT22;15225;50.730;4.244;2023-09-19T18:58:44;20.30;99.90
27870;DHT22;15225;50.730;4.244;2023-09-19T19:01:11;20.20;99.90
27870;DHT22;15225;50.730;4.244;2023-09-19T19:03:38;20.20;99.90
27870;DHT22;15225;50.730;4.244;2023-09-19T19:06:06;20.20;99.90
27870;DHT22;15225;50.730;4.244;2023-09-19T19:08:33;20.40;99.90
27870;DHT22;15225;50.730;4.244;2023-09-19T19:10:59;20.40;99.90
27870;DHT22;15225;50.730;4.244;2023-09-19T19:13:25;20.40;99.90
27870;DHT22;15225;50.730;4.244;2023-09-19T19:15:50;20.30;99.90
27870;DHT22;15225;50.730;4.244;2023-09-19T19:18:16;20.40;99.90
27870;DHT22;15225;50.730;4.244;2023-09-19T19:20:42;20.40;99.90
27870;DHT22;15225;50.730;4.244;2023-09-19T19:23:09;20.30;99.90
27870;DHT22;15225;50.730;4.244;2023-09-19T19:25:45;20.30;99.90
27870;DHT22;15225;50.730;4.244;2023-09-19T19:28:12;20.30;99.90
27870;DHT22;15225;50.730;4.244;2023-09-19T19:30:46;20.40;99.90
27870;DHT22;15225;50.730;4.244;2023-09-19T19:33:16;20.30;99.90
27870;DHT22;15225;50.730;4.244;2023-09-19T19:35:42;20.40;99.90
27870;DHT22;15225;50.730;4.244;2023-09-19T19:38:08;20.30;99.90
27870;DHT22;15225;50.730;4.244;2023-09-19T19:40:34;20.20;99.90
27870;DHT22;15225;50.730;4.244;2023-09-19T19:43:02;20.30;99.90
27870;DHT22;15225;50.730;4.244;2023-09-19T19:45:28;20.40;99.90
27870;DHT22;15225;50.730;4.244;2023-09-19T19:47:53;20.50;99.90
27870;DHT22;15225;50.730;4.244;2023-09-19T19:50:19;20.60;99.90
27870;DHT22;15225;50.730;4.244;2023-09-19T19:52:45;20.40;99.90
27870;DHT22;15225;50.730;4.244;2023-09-19T19:55:15;20.20;1.00
27870;DHT22;15225;50.730;4.244;2023-09-19T19:57:41;20.20;1.00
27870;DHT22;15225;50.730;4.244;2023-09-19T20:00:08;20.20;1.00
27870;DHT22;15225;50.730;4.244;2023-09-19T20:02:34;20.30;99.90
27870;DHT22;15225;50.730;4.244;2023-09-19T20:05:00;20.20;1.00
27870;DHT22;15225;50.730;4.244;2023-09-19T20:07:29;20.10;1.00
27870;DHT22;15225;50.730;4.244;2023-09-19T20:09:55;20.20;1.00
27870;DHT22;15225;50.730;4.244;2023-09-19T20:12:21;20.40;99.90
27870;DHT22;15225;50.730;4.244;2023-09-19T20:14:47;20.40;99.90
27870;DHT22;15225;50.730;4.244;2023-09-19T20:17:12;20.30;99.90
27870;DHT22;15225;50.730;4.244;2023-09-19T20:19:38;20.30;1.00
27870;DHT22;15225;50.730;4.244;2023-09-19T20:22:04;20.20;1.00
27870;DHT22;15225;50.730;4.244;2023-09-19T20:24:34;20.20;1.00
27870;DHT22;15225;50.730;4.244;2023-09-19T20:27:03;20.30;1.00
27870;DHT22;15225;50.730;4.244;2023-09-19T20:29:33;20.40;99.90
27870;DHT22;15225;50.730;4.244;2023-09-19T20:31:59;20.30;1.00
27870;DHT22;15225;50.730;4.244;2023-09-19T20:34:26;20.30;1.00
27870;DHT22;15225;50.730;4.244;2023-09-19T20:36:52;20.30;1.00
27870;DHT22;15225;50.730;4.244;2023-09-19T20:39:17;20.30;1.00
27870;DHT22;15225;50.730;4.244;2023-09-19T20:41:48;20.30;1.00
27870;DHT22;15225;50.730;4.244;2023-09-19T20:44:14;20.30;1.00
27870;DHT22;15225;50.730;4.244;2023-09-19T20:46:39;20.40;1.00
27870;DHT22;15225;50.730;4.244;2023-09-19T20:49:05;20.30;1.00
27870;DHT22;15225;50.730;4.244;2023-09-19T20:51:31;20.40;1.00
27870;DHT22;15225;50.730;4.244;2023-09-19T20:54:00;20.30;1.00
27870;DHT22;15225;50.730;4.244;2023-09-19T20:56:26;20.20;1.00
27870;DHT22;15225;50.730;4.244;2023-09-19T20:58:52;20.30;1.00
27870;DHT22;15225;50.730;4.244;2023-09-19T21:01:18;20.30;1.00
27870;DHT22;15225;50.730;4.244;2023-09-19T21:03:45;20.40;1.00
27870;DHT22;15225;50.730;4.244;2023-09-19T21:06:11;20.30;1.00
27870;DHT22;15225;50.730;4.244;2023-09-19T21:08:40;20.30;1.00
27870;DHT22;15225;50.730;4.244;2023-09-19T21:11:14;20.40;1.00
27870;DHT22;15225;50.730;4.244;2023-09-19T21:13:41;20.50;99.90
27870;DHT22;15225;50.730;4.244;2023-09-19T21:16:08;20.40;1.00
27870;DHT22;15225;50.730;4.244;2023-09-19T21:18:35;20.30;1.00
